sensor_id;sensor_type;location;lat;lon;timestamp;temperature;humidity
51733;DHT22;39139;53.144;6.244;2022-12-07T00:01:24;3.60;99.90
51733;DHT22;39139;53.144;6.244;2022-12-07T00:03:54;3.40;99.90
51733;DHT22;39139;53.144;6.244;2022-12-07T00:06:22;3.40;99.90
51733;DHT22;39139;53.144;6.244;2022-12-07T00:08:48;3.40;99.90
51733;DHT22;39139;53.144;6.244;2022-12-07T00:11:18;3.30;99.90
51733;DHT22;39139;53.144;6.244;2022-12-07T00:13:45;3.50;99.90
51733;DHT22;39139;53.144;6.244;2022-12-07T00:16:16;3.70;99.90
51733;DHT22;39139;53.144;6.244;2022-12-07T00:18:43;3.50;99.90
51733;DHT22;39139;53.144;6.244;2022-12-07T00:21:15;3.80;99.90
51733;DHT22;39139;53.144;6.244;2022-12-07T00:23:42;3.50;99.90
51733;DHT22;39139;53.144;6.244;2022-12-07T00:26:22;3.70;99.90
51733;DHT22;39139;53.144;6.244;2022-12-07T00:28:50;3.70;99.90
51733;DHT22;39139;53.144;6.244;2022-12-07T00:31:18;3.80;99.90
51733;DHT22;39139;53.144;6.244;2022-12-07T00:33:44;3.80;99.90
51733;DHT22;39139;53.144;6.244;2022-12-07T00:36:12;3.40;99.90
51733;DHT22;39139;53.144;6.244;2022-12-07T00:38:39;3.40;99.90
51733;DHT22;39139;53.144;6.244;2022-12-07T00:41:10;3.50;99.90
51733;DHT22;39139;53.144;6.244;2022-12-07T00:43:36;3.60;99.90
51733;DHT22;39139;53.144;6.244;2022-12-07T00:46:02;3.50;99.90
51733;DHT22;39139;53.144;6.244;2022-12-07T00:48:27;3.60;99.90
51733;DHT22;39139;53.144;6.244;2022-12-07T00:50:53;3.50;99.90
51733;DHT22;39139;53.144;6.244;2022-12-07T00:53:19;3.50;99.90
51733;DHT22;39139;53.144;6.244;2022-12-07T00:55:45;3.30;99.90
51733;DHT22;39139;53.144;6.244;2022-12-07T00:58:11;3.70;99.90
51733;DHT22;39139;53.144;6.244;2022-12-07T01:00:39;3.30;99.90
51733;DHT22;39139;53.144;6.244;2022-12-07T01:03:06;3.50;99.90
51733;DHT22;39139;53.144;6.244;2022-12-07T01:05:32;3.30;99.90
51733;DHT22;39139;53.144;6.244;2022-12-07T01:07:57;3.40;99.90
51733;DHT22;39139;53.144;6.244;2022-12-07T01:10:23;3.50;99.90
51733;DHT22;39139;53.144;6.244;2022-12-07T01:12:49;3.40;99.90
51733;DHT22;39139;53.144;6.244;2022-12-07T01:15:15;3.50;99.90
51733;DHT22;39139;53.144;6.244;2022-12-07T01:17:40;3.60;99.90
51733;DHT22;39139;53.144;6.244;2022-12-07T01:20:06;3.50;99.90
51733;DHT22;39139;53.144;6.244;2022-12-07T01:22:40;3.70;99.90
51733;DHT22;39139;53.144;6.244;2022-12-07T01:25:07;4.30;99.90
51733;DHT22;39139;53.144;6.244;2022-12-07T01:27:34;3.70;99.90
51733;DHT22;39139;53.144;6.244;2022-12-07T01:30:00;4.40;99.90
51733;DHT22;39139;53.144;6.244;2022-12-07T01:32:27;4.30;99.90
51733;DHT22;39139;53.144;6.244;2022-12-07T01:34:52;4.20;99.90
51733;DHT22;39139;53.144;6.244;2022-12-07T01:37:18;4.20;99.90
51733;DHT22;39139;53.144;6.244;2022-12-07T01:39:44;3.60;99.90
51733;DHT22;39139;53.144;6.244;2022-12-07T01:42:12;3.90;99.90
51733;DHT22;39139;53.144;6.244;2022-12-07T01:45:50;3.70;99.90
51733;DHT22;39139;53.144;6.244;2022-12-07T01:47:57;3.80;99.90
51733;DHT22;39139;53.144;6.244;2022-12-07T01:50:26;3.70;99.90
51733;DHT22;39139;53.144;6.244;2022-12-07T01:52:53;4.00;99.90
51733;DHT22;39139;53.144;6.244;2022-12-07T01:55:22;4.00;99.90
51733;DHT22;39139;53.144;6.244;2022-12-07T01:57:50;4.10;99.90
51733;DHT22;39139;53.144;6.244;2022-12-07T02:00:18;3.50;99.90
51733;DHT22;39139;53.144;6.244;2022-12-07T02:05:25;3.70;99.90
51733;DHT22;39139;53.144;6.244;2022-12-07T02:07:53;3.50;99.90
51733;DHT22;39139;53.144;6.244;2022-12-07T02:10:20;3.50;99.90
51733;DHT22;39139;53.144;6.244;2022-12-07T02:12:50;3.50;99.90
51733;DHT22;39139;53.144;6.244;2022-12-07T02:15:17;3.40;99.90
51733;DHT22;39139;53.144;6.244;2022-12-07T02:18:38;3.80;99.90
51733;DHT22;39139;53.144;6.244;2022-12-07T02:26:34;3.90;99.90
51733;DHT22;39139;53.144;6.244;2022-12-07T02:31:36;3.40;99.90
51733;DHT22;39139;53.144;6.244;2022-12-07T02:34:09;3.50;99.90
51733;DHT22;39139;53.144;6.244;2022-12-07T02:36:41;3.70;99.90
51733;DHT22;39139;53.144;6.244;2022-12-07T02:39:20;3.50;99.90
51733;DHT22;39139;53.144;6.244;2022-12-07T02:41:52;3.00;99.90
51733;DHT22;39139;53.144;6.244;2022-12-07T02:44:25;3.50;99.90
51733;DHT22;39139;53.144;6.244;2022-12-07T02:47:02;3.30;99.90
51733;DHT22;39139;53.144;6.244;2022-12-07T02:49:29;3.40;99.90
51733;DHT22;39139;53.144;6.244;2022-12-07T02:52:01;3.30;99.90
51733;DHT22;39139;53.144;6.244;2022-12-07T02:54:26;3.30;99.90
51733;DHT22;39139;53.144;6.244;2022-12-07T02:57:05;3.50;99.90
51733;DHT22;39139;53.144;6.244;2022-12-07T03:02:40;3.30;99.90
51733;DHT22;39139;53.144;6.244;2022-12-07T03:08:15;3.00;99.90
51733;DHT22;39139;53.144;6.244;2022-12-07T03:10:51;3.00;99.90
51733;DHT22;39139;53.144;6.244;2022-12-07T03:16:26;2.90;99.90
51733;DHT22;39139;53.144;6.244;2022-12-07T03:18:55;3.60;99.90
51733;DHT22;39139;53.144;6.244;2022-12-07T03:21:23;3.00;99.90
51733;DHT22;39139;53.144;6.244;2022-12-07T03:23:54;2.90;99.90
51733;DHT22;39139;53.144;6.244;2022-12-07T03:26:24;3.70;99.90
51733;DHT22;39139;53.144;6.244;2022-12-07T03:28:56;2.90;99.90
51733;DHT22;39139;53.144;6.244;2022-12-07T03:31:29;2.80;99.90
51733;DHT22;39139;53.144;6.244;2022-12-07T03:34:02;2.70;99.90
51733;DHT22;39139;53.144;6.244;2022-12-07T03:39:26;2.60;99.90
51733;DHT22;39139;53.144;6.244;2022-12-07T03:41:54;2.60;99.90
51733;DHT22;39139;53.144;6.244;2022-12-07T03:44:20;2.50;99.90
51733;DHT22;39139;53.144;6.244;2022-12-07T03:47:06;2.50;99.90
51733;DHT22;39139;53.144;6.244;2022-12-07T03:52:32;2.50;99.90
51733;DHT22;39139;53.144;6.244;2022-12-07T03:55:11;2.70;99.90
51733;DHT22;39139;53.144;6.244;2022-12-07T03:57:39;2.40;99.90
51733;DHT22;39139;53.144;6.244;2022-12-07T04:00:09;2.50;99.90
51733;DHT22;39139;53.144;6.244;2022-12-07T04:02:35;2.40;99.90
51733;DHT22;39139;53.144;6.244;2022-12-07T04:05:02;2.60;99.90
51733;DHT22;39139;53.144;6.244;2022-12-07T04:07:28;2.70;99.90
51733;DHT22;39139;53.144;6.244;2022-12-07T04:09:53;2.80;99.90
51733;DHT22;39139;53.144;6.244;2022-12-07T04:12:21;2.70;99.90
51733;DHT22;39139;53.144;6.244;2022-12-07T04:14:46;3.00;99.90
51733;DHT22;39139;53.144;6.244;2022-12-07T04:17:12;3.00;99.90
51733;DHT22;39139;53.144;6.244;2022-12-07T04:19:38;3.10;99.90
51733;DHT22;39139;53.144;6.244;2022-12-07T04:22:04;3.00;99.90
51733;DHT22;39139;53.144;6.244;2022-12-07T04:24:30;3.10;99.90
51733;DHT22;39139;53.144;6.244;2022-12-07T04:26:56;3.00;99.90
51733;DHT22;39139;53.144;6.244;2022-12-07T04:29:22;3.00;99.90
51733;DHT22;39139;53.144;6.244;2022-12-07T04:31:48;2.90;99.90
51733;DHT22;39139;53.144;6.244;2022-12-07T04:34:14;3.00;99.90
51733;DHT22;39139;53.144;6.244;2022-12-07T04:36:40;2.70;99.90
51733;DHT22;39139;53.144;6.244;2022-12-07T04:39:07;2.80;99.90
51733;DHT22;39139;53.144;6.244;2022-12-07T04:41:34;2.60;99.90
51733;DHT22;39139;53.144;6.244;2022-12-07T04:44:03;2.30;99.90
51733;DHT22;39139;53.144;6.244;2022-12-07T04:46:32;2.60;99.90
51733;DHT22;39139;53.144;6.244;2022-12-07T04:48:58;2.50;99.90
51733;DHT22;39139;53.144;6.244;2022-12-07T04:51:26;2.70;99.90
51733;DHT22;39139;53.144;6.244;2022-12-07T04:53:53;2.40;99.90
51733;DHT22;39139;53.144;6.244;2022-12-07T04:56:19;2.30;99.90
51733;DHT22;39139;53.144;6.244;2022-12-07T04:58:46;2.20;99.90
51733;DHT22;39139;53.144;6.244;2022-12-07T05:01:14;2.40;99.90
51733;DHT22;39139;53.144;6.244;2022-12-07T05:03:40;2.10;99.90
51733;DHT22;39139;53.144;6.244;2022-12-07T05:06:06;2.40;99.90
51733;DHT22;39139;53.144;6.244;2022-12-07T05:08:33;2.60;99.90
51733;DHT22;39139;53.144;6.244;2022-12-07T05:11:00;2.50;99.90
51733;DHT22;39139;53.144;6.244;2022-12-07T05:13:26;2.40;99.90
51733;DHT22;39139;53.144;6.244;2022-12-07T05:15:52;2.70;99.90
51733;DHT22;39139;53.144;6.244;2022-12-07T05:18:18;2.50;99.90
51733;DHT22;39139;53.144;6.244;2022-12-07T05:20:44;2.40;99.90
51733;DHT22;39139;53.144;6.244;2022-12-07T05:23:10;2.30;99.90
51733;DHT22;39139;53.144;6.244;2022-12-07T05:25:36;2.20;99.90
51733;DHT22;39139;53.144;6.244;2022-12-07T05:28:02;2.90;99.90
51733;DHT22;39139;53.144;6.244;2022-12-07T05:30:28;2.20;99.90
51733;DHT22;39139;53.144;6.244;2022-12-07T05:32:53;2.30;99.90
51733;DHT22;39139;53.144;6.244;2022-12-07T05:35:19;2.20;99.90
51733;DHT22;39139;53.144;6.244;2022-12-07T05:37:45;2.80;99.90
51733;DHT22;39139;53.144;6.244;2022-12-07T05:40:12;2.40;99.90
51733;DHT22;39139;53.144;6.244;2022-12-07T05:42:38;2.40;99.90
51733;DHT22;39139;53.144;6.244;2022-12-07T05:45:04;2.50;99.90
51733;DHT22;39139;53.144;6.244;2022-12-07T05:47:30;2.70;99.90
51733;DHT22;39139;53.144;6.244;2022-12-07T05:49:56;2.70;99.90
51733;DHT22;39139;53.144;6.244;2022-12-07T05:52:22;2.70;99.90
51733;DHT22;39139;53.144;6.244;2022-12-07T05:54:47;2.90;99.90
51733;DHT22;39139;53.144;6.244;2022-12-07T05:57:13;3.00;99.90
51733;DHT22;39139;53.144;6.244;2022-12-07T05:59:39;3.30;99.90
51733;DHT22;39139;53.144;6.244;2022-12-07T06:02:08;3.20;99.90
51733;DHT22;39139;53.144;6.244;2022-12-07T06:04:36;3.10;99.90
51733;DHT22;39139;53.144;6.244;2022-12-07T06:07:02;3.00;99.90
51733;DHT22;39139;53.144;6.244;2022-12-07T06:09:29;3.00;99.90
51733;DHT22;39139;53.144;6.244;2022-12-07T06:11:55;3.30;99.90
51733;DHT22;39139;53.144;6.244;2022-12-07T06:14:40;3.40;99.90
51733;DHT22;39139;53.144;6.244;2022-12-07T06:17:06;3.00;99.90
51733;DHT22;39139;53.144;6.244;2022-12-07T06:19:32;3.10;99.90
51733;DHT22;39139;53.144;6.244;2022-12-07T06:21:58;3.30;99.90
51733;DHT22;39139;53.144;6.244;2022-12-07T06:24:24;3.20;99.90
51733;DHT22;39139;53.144;6.244;2022-12-07T06:26:50;3.30;99.90
51733;DHT22;39139;53.144;6.244;2022-12-07T06:29:17;3.00;99.90
51733;DHT22;39139;53.144;6.244;2022-12-07T06:31:42;3.20;99.90
51733;DHT22;39139;53.144;6.244;2022-12-07T06:34:14;3.10;99.90
51733;DHT22;39139;53.144;6.244;2022-12-07T06:36:40;3.00;99.90
51733;DHT22;39139;53.144;6.244;2022-12-07T06:39:06;3.00;99.90
51733;DHT22;39139;53.144;6.244;2022-12-07T06:41:34;3.00;99.90
51733;DHT22;39139;53.144;6.244;2022-12-07T06:44:00;2.70;99.90
51733;DHT22;39139;53.144;6.244;2022-12-07T06:46:26;2.50;99.90
51733;DHT22;39139;53.144;6.244;2022-12-07T06:48:51;3.00;99.90
51733;DHT22;39139;53.144;6.244;2022-12-07T06:51:17;2.80;99.90
51733;DHT22;39139;53.144;6.244;2022-12-07T06:53:43;2.50;99.90
51733;DHT22;39139;53.144;6.244;2022-12-07T06:56:08;3.10;99.90
51733;DHT22;39139;53.144;6.244;2022-12-07T06:58:34;2.60;99.90
51733;DHT22;39139;53.144;6.244;2022-12-07T07:01:00;2.30;99.90
51733;DHT22;39139;53.144;6.244;2022-12-07T07:03:25;3.00;99.90
51733;DHT22;39139;53.144;6.244;2022-12-07T07:05:51;3.20;99.90
51733;DHT22;39139;53.144;6.244;2022-12-07T07:08:17;2.30;99.90
51733;DHT22;39139;53.144;6.244;2022-12-07T07:10:42;2.20;99.90
51733;DHT22;39139;53.144;6.244;2022-12-07T07:13:08;2.20;99.90
51733;DHT22;39139;53.144;6.244;2022-12-07T07:15:34;2.60;99.90
51733;DHT22;39139;53.144;6.244;2022-12-07T07:18:00;2.60;99.90
51733;DHT22;39139;53.144;6.244;2022-12-07T07:20:26;3.00;99.90
51733;DHT22;39139;53.144;6.244;2022-12-07T07:22:54;2.70;99.90
51733;DHT22;39139;53.144;6.244;2022-12-07T07:25:20;2.70;99.90
51733;DHT22;39139;53.144;6.244;2022-12-07T07:27:45;2.30;99.90
51733;DHT22;39139;53.144;6.244;2022-12-07T07:30:11;2.30;99.90
51733;DHT22;39139;53.144;6.244;2022-12-07T07:32:37;2.30;99.90
51733;DHT22;39139;53.144;6.244;2022-12-07T07:35:03;3.30;99.90
51733;DHT22;39139;53.144;6.244;2022-12-07T07:37:29;2.10;99.90
51733;DHT22;39139;53.144;6.244;2022-12-07T07:39:55;2.20;99.90
51733;DHT22;39139;53.144;6.244;2022-12-07T07:42:20;2.20;99.90
51733;DHT22;39139;53.144;6.244;2022-12-07T07:44:46;2.00;99.90
51733;DHT22;39139;53.144;6.244;2022-12-07T07:47:12;1.90;99.90
51733;DHT22;39139;53.144;6.244;2022-12-07T07:49:37;2.00;99.90
51733;DHT22;39139;53.144;6.244;2022-12-07T07:52:05;3.40;99.90
51733;DHT22;39139;53.144;6.244;2022-12-07T07:54:31;1.90;99.90
51733;DHT22;39139;53.144;6.244;2022-12-07T07:56:57;1.80;99.90
51733;DHT22;39139;53.144;6.244;2022-12-07T07:59:23;2.00;99.90
51733;DHT22;39139;53.144;6.244;2022-12-07T08:01:50;2.30;99.90
51733;DHT22;39139;53.144;6.244;2022-12-07T08:04:15;1.90;99.90
51733;DHT22;39139;53.144;6.244;2022-12-07T08:06:41;2.10;99.90
51733;DHT22;39139;53.144;6.244;2022-12-07T08:09:08;2.50;99.90
51733;DHT22;39139;53.144;6.244;2022-12-07T08:11:34;2.20;99.90
51733;DHT22;39139;53.144;6.244;2022-12-07T08:14:00;2.70;99.90
51733;DHT22;39139;53.144;6.244;2022-12-07T08:16:25;2.40;99.90
51733;DHT22;39139;53.144;6.244;2022-12-07T08:18:51;2.30;99.90
51733;DHT22;39139;53.144;6.244;2022-12-07T08:21:17;2.70;99.90
51733;DHT22;39139;53.144;6.244;2022-12-07T08:23:43;2.20;99.90
51733;DHT22;39139;53.144;6.244;2022-12-07T08:26:11;2.30;99.90
51733;DHT22;39139;53.144;6.244;2022-12-07T08:28:38;2.20;99.90
51733;DHT22;39139;53.144;6.244;2022-12-07T08:31:07;2.30;99.90
51733;DHT22;39139;53.144;6.244;2022-12-07T08:33:34;2.10;99.90
51733;DHT22;39139;53.144;6.244;2022-12-07T08:36:04;2.30;99.90
51733;DHT22;39139;53.144;6.244;2022-12-07T08:38:30;2.20;99.90
51733;DHT22;39139;53.144;6.244;2022-12-07T08:40:57;2.30;99.90
51733;DHT22;39139;53.144;6.244;2022-12-07T08:43:27;2.50;99.90
51733;DHT22;39139;53.144;6.244;2022-12-07T08:46:03;2.60;99.90
51733;DHT22;39139;53.144;6.244;2022-12-07T08:48:30;2.80;99.90
51733;DHT22;39139;53.144;6.244;2022-12-07T08:50:56;3.00;99.90
51733;DHT22;39139;53.144;6.244;2022-12-07T08:53:22;2.90;99.90
51733;DHT22;39139;53.144;6.244;2022-12-07T08:55:48;3.40;99.90
51733;DHT22;39139;53.144;6.244;2022-12-07T08:58:14;3.20;99.90
51733;DHT22;39139;53.144;6.244;2022-12-07T09:00:40;3.20;99.90
51733;DHT22;39139;53.144;6.244;2022-12-07T09:03:05;3.40;99.90
51733;DHT22;39139;53.144;6.244;2022-12-07T09:05:32;3.40;99.90
51733;DHT22;39139;53.144;6.244;2022-12-07T09:08:00;3.60;99.90
51733;DHT22;39139;53.144;6.244;2022-12-07T09:10:26;3.70;99.90
51733;DHT22;39139;53.144;6.244;2022-12-07T09:12:52;4.30;99.90
51733;DHT22;39139;53.144;6.244;2022-12-07T09:15:18;4.10;99.90
51733;DHT22;39139;53.144;6.244;2022-12-07T09:17:43;3.70;99.90
51733;DHT22;39139;53.144;6.244;2022-12-07T09:20:09;3.90;99.90
51733;DHT22;39139;53.144;6.244;2022-12-07T09:22:35;3.80;99.90
51733;DHT22;39139;53.144;6.244;2022-12-07T09:25:03;4.10;99.90
51733;DHT22;39139;53.144;6.244;2022-12-07T09:27:29;4.00;99.90
51733;DHT22;39139;53.144;6.244;2022-12-07T09:29:54;3.90;99.90
51733;DHT22;39139;53.144;6.244;2022-12-07T09:32:20;4.00;99.90
51733;DHT22;39139;53.144;6.244;2022-12-07T09:34:46;4.20;99.90
51733;DHT22;39139;53.144;6.244;2022-12-07T09:37:12;4.20;99.90
51733;DHT22;39139;53.144;6.244;2022-12-07T09:39:38;4.30;99.90
51733;DHT22;39139;53.144;6.244;2022-12-07T09:42:04;4.60;99.90
51733;DHT22;39139;53.144;6.244;2022-12-07T09:44:32;4.20;99.90
51733;DHT22;39139;53.144;6.244;2022-12-07T09:46:58;4.60;99.90
51733;DHT22;39139;53.144;6.244;2022-12-07T09:49:27;4.90;99.90
51733;DHT22;39139;53.144;6.244;2022-12-07T09:52:16;5.60;99.90
51733;DHT22;39139;53.144;6.244;2022-12-07T09:54:46;5.40;99.90
51733;DHT22;39139;53.144;6.244;2022-12-07T09:57:13;6.00;99.90
51733;DHT22;39139;53.144;6.244;2022-12-07T09:59:39;6.10;99.90
51733;DHT22;39139;53.144;6.244;2022-12-07T10:05:06;6.00;99.90
51733;DHT22;39139;53.144;6.244;2022-12-07T10:07:32;5.70;99.90
51733;DHT22;39139;53.144;6.244;2022-12-07T10:09:58;5.80;99.90
51733;DHT22;39139;53.144;6.244;2022-12-07T10:12:24;5.50;99.90
51733;DHT22;39139;53.144;6.244;2022-12-07T10:15:16;5.40;99.90
51733;DHT22;39139;53.144;6.244;2022-12-07T10:17:49;5.50;99.90
51733;DHT22;39139;53.144;6.244;2022-12-07T10:20:33;6.30;99.90
51733;DHT22;39139;53.144;6.244;2022-12-07T10:23:04;5.60;99.90
51733;DHT22;39139;53.144;6.244;2022-12-07T10:25:35;6.00;99.90
51733;DHT22;39139;53.144;6.244;2022-12-07T10:33:30;7.80;99.90
51733;DHT22;39139;53.144;6.244;2022-12-07T10:35:57;8.60;99.90
51733;DHT22;39139;53.144;6.244;2022-12-07T10:38:25;8.70;99.90
51733;DHT22;39139;53.144;6.244;2022-12-07T10:41:04;8.60;99.90
51733;DHT22;39139;53.144;6.244;2022-12-07T10:43:29;8.90;99.90
51733;DHT22;39139;53.144;6.244;2022-12-07T10:46:07;9.50;99.90
51733;DHT22;39139;53.144;6.244;2022-12-07T10:54:20;9.70;99.90
51733;DHT22;39139;53.144;6.244;2022-12-07T11:00:15;9.30;99.90
51733;DHT22;39139;53.144;6.244;2022-12-07T11:08:03;8.50;99.90
51733;DHT22;39139;53.144;6.244;2022-12-07T11:10:44;8.30;99.90
51733;DHT22;39139;53.144;6.244;2022-12-07T11:24:18;8.50;99.90
51733;DHT22;39139;53.144;6.244;2022-12-07T11:38:17;9.40;99.90
51733;DHT22;39139;53.144;6.244;2022-12-07T11:40:59;9.30;99.90
51733;DHT22;39139;53.144;6.244;2022-12-07T11:46:19;9.10;99.90
51733;DHT22;39139;53.144;6.244;2022-12-07T11:48:57;9.00;99.90
51733;DHT22;39139;53.144;6.244;2022-12-07T11:51:25;8.80;99.90
51733;DHT22;39139;53.144;6.244;2022-12-07T11:53:55;8.50;99.90
51733;DHT22;39139;53.144;6.244;2022-12-07T11:56:27;8.30;99.90
51733;DHT22;39139;53.144;6.244;2022-12-07T12:06:39;7.40;99.90
51733;DHT22;39139;53.144;6.244;2022-12-07T12:09:09;7.30;99.90
51733;DHT22;39139;53.144;6.244;2022-12-07T12:17:43;6.80;99.90
51733;DHT22;39139;53.144;6.244;2022-12-07T12:20:29;6.70;99.90
51733;DHT22;39139;53.144;6.244;2022-12-07T12:25:44;6.50;99.90
51733;DHT22;39139;53.144;6.244;2022-12-07T12:28:41;6.40;99.90
51733;DHT22;39139;53.144;6.244;2022-12-07T12:31:16;5.90;99.90
51733;DHT22;39139;53.144;6.244;2022-12-07T12:33:56;5.50;99.90
51733;DHT22;39139;53.144;6.244;2022-12-07T12:47:41;4.90;99.90
51733;DHT22;39139;53.144;6.244;2022-12-07T12:50:23;4.80;99.90
51733;DHT22;39139;53.144;6.244;2022-12-07T12:52:56;4.80;99.90
51733;DHT22;39139;53.144;6.244;2022-12-07T13:01:30;4.80;99.90
51733;DHT22;39139;53.144;6.244;2022-12-07T13:03:34;4.80;99.90
51733;DHT22;39139;53.144;6.244;2022-12-07T13:08:46;4.70;99.90
51733;DHT22;39139;53.144;6.244;2022-12-07T13:11:18;4.70;99.90
51733;DHT22;39139;53.144;6.244;2022-12-07T13:13:44;4.60;99.90
51733;DHT22;39139;53.144;6.244;2022-12-07T13:18:39;4.60;99.90
51733;DHT22;39139;53.144;6.244;2022-12-07T13:28:50;4.60;99.90
51733;DHT22;39139;53.144;6.244;2022-12-07T13:31:49;4.60;99.90
51733;DHT22;39139;53.144;6.244;2022-12-07T13:34:34;4.60;99.90
51733;DHT22;39139;53.144;6.244;2022-12-07T13:39:49;4.60;99.90
51733;DHT22;39139;53.144;6.244;2022-12-07T13:42:35;4.60;99.90
51733;DHT22;39139;53.144;6.244;2022-12-07T13:45:26;4.60;99.90
51733;DHT22;39139;53.144;6.244;2022-12-07T13:51:00;4.60;99.90
51733;DHT22;39139;53.144;6.244;2022-12-07T13:53:27;4.50;99.90
51733;DHT22;39139;53.144;6.244;2022-12-07T13:55:57;4.50;99.90
51733;DHT22;39139;53.144;6.244;2022-12-07T13:58:24;4.50;99.90
51733;DHT22;39139;53.144;6.244;2022-12-07T14:00:50;4.50;99.90
51733;DHT22;39139;53.144;6.244;2022-12-07T14:05:44;4.40;99.90
51733;DHT22;39139;53.144;6.244;2022-12-07T14:10:53;4.40;99.90
51733;DHT22;39139;53.144;6.244;2022-12-07T14:13:32;4.40;99.90
51733;DHT22;39139;53.144;6.244;2022-12-07T14:16:03;4.50;99.90
51733;DHT22;39139;53.144;6.244;2022-12-07T14:18:38;4.50;99.90
51733;DHT22;39139;53.144;6.244;2022-12-07T14:21:06;4.60;99.90
51733;DHT22;39139;53.144;6.244;2022-12-07T14:23:32;4.50;99.90
51733;DHT22;39139;53.144;6.244;2022-12-07T14:26:20;4.80;99.90
51733;DHT22;39139;53.144;6.244;2022-12-07T14:28:46;4.50;99.90
51733;DHT22;39139;53.144;6.244;2022-12-07T14:31:17;4.50;99.90
51733;DHT22;39139;53.144;6.244;2022-12-07T14:33:45;4.50;99.90
51733;DHT22;39139;53.144;6.244;2022-12-07T14:36:12;4.60;99.90
51733;DHT22;39139;53.144;6.244;2022-12-07T14:38:38;4.50;99.90
51733;DHT22;39139;53.144;6.244;2022-12-07T14:41:15;4.60;99.90
51733;DHT22;39139;53.144;6.244;2022-12-07T14:44:04;4.50;99.90
51733;DHT22;39139;53.144;6.244;2022-12-07T14:46:33;4.50;99.90
51733;DHT22;39139;53.144;6.244;2022-12-07T14:48:59;4.50;99.90
51733;DHT22;39139;53.144;6.244;2022-12-07T14:51:25;4.40;99.90
51733;DHT22;39139;53.144;6.244;2022-12-07T14:53:52;4.40;99.90
51733;DHT22;39139;53.144;6.244;2022-12-07T14:56:17;4.40;99.90
51733;DHT22;39139;53.144;6.244;2022-12-07T14:58:43;4.40;99.90
51733;DHT22;39139;53.144;6.244;2022-12-07T15:01:09;4.30;99.90
51733;DHT22;39139;53.144;6.244;2022-12-07T15:03:34;4.20;99.90
51733;DHT22;39139;53.144;6.244;2022-12-07T15:06:04;4.10;99.90
51733;DHT22;39139;53.144;6.244;2022-12-07T15:08:30;4.10;99.90
51733;DHT22;39139;53.144;6.244;2022-12-07T15:10:55;3.90;99.90
51733;DHT22;39139;53.144;6.244;2022-12-07T15:13:21;3.90;99.90
51733;DHT22;39139;53.144;6.244;2022-12-07T15:16:18;3.80;99.90
51733;DHT22;39139;53.144;6.244;2022-12-07T15:18:44;3.80;99.90
51733;DHT22;39139;53.144;6.244;2022-12-07T15:21:13;3.80;99.90
51733;DHT22;39139;53.144;6.244;2022-12-07T15:23:39;3.80;99.90
51733;DHT22;39139;53.144;6.244;2022-12-07T15:26:05;3.80;99.90
51733;DHT22;39139;53.144;6.244;2022-12-07T15:28:30;3.70;99.90
51733;DHT22;39139;53.144;6.244;2022-12-07T15:30:56;3.70;99.90
51733;DHT22;39139;53.144;6.244;2022-12-07T15:33:21;3.70;99.90
51733;DHT22;39139;53.144;6.244;2022-12-07T15:35:47;3.60;99.90
51733;DHT22;39139;53.144;6.244;2022-12-07T15:38:13;3.70;99.90
51733;DHT22;39139;53.144;6.244;2022-12-07T15:40:39;3.00;99.90
51733;DHT22;39139;53.144;6.244;2022-12-07T15:43:05;3.60;99.90
51733;DHT22;39139;53.144;6.244;2022-12-07T15:45:50;3.70;99.90
51733;DHT22;39139;53.144;6.244;2022-12-07T15:48:16;3.70;99.90
51733;DHT22;39139;53.144;6.244;2022-12-07T15:50:41;3.70;99.90
51733;DHT22;39139;53.144;6.244;2022-12-07T15:53:07;3.70;99.90
51733;DHT22;39139;53.144;6.244;2022-12-07T15:55:33;3.70;99.90
51733;DHT22;39139;53.144;6.244;2022-12-07T15:57:58;3.70;99.90
51733;DHT22;39139;53.144;6.244;2022-12-07T16:00:25;3.70;99.90
51733;DHT22;39139;53.144;6.244;2022-12-07T16:02:50;3.70;99.90
51733;DHT22;39139;53.144;6.244;2022-12-07T16:05:16;3.60;99.90
51733;DHT22;39139;53.144;6.244;2022-12-07T16:07:42;3.60;99.90
51733;DHT22;39139;53.144;6.244;2022-12-07T16:10:08;3.60;99.90
51733;DHT22;39139;53.144;6.244;2022-12-07T16:12:33;3.60;99.90
51733;DHT22;39139;53.144;6.244;2022-12-07T16:14:59;3.60;99.90
51733;DHT22;39139;53.144;6.244;2022-12-07T16:17:25;3.60;99.90
51733;DHT22;39139;53.144;6.244;2022-12-07T16:19:50;3.60;99.90
51733;DHT22;39139;53.144;6.244;2022-12-07T16:22:16;3.60;99.90
51733;DHT22;39139;53.144;6.244;2022-12-07T16:24:42;3.70;99.90
51733;DHT22;39139;53.144;6.244;2022-12-07T16:27:07;3.70;99.90
51733;DHT22;39139;53.144;6.244;2022-12-07T16:29:33;3.70;99.90
51733;DHT22;39139;53.144;6.244;2022-12-07T16:31:58;3.70;99.90
51733;DHT22;39139;53.144;6.244;2022-12-07T16:34:24;3.90;99.90
51733;DHT22;39139;53.144;6.244;2022-12-07T16:36:50;3.90;99.90
51733;DHT22;39139;53.144;6.244;2022-12-07T16:39:15;3.60;99.90
51733;DHT22;39139;53.144;6.244;2022-12-07T16:41:41;3.70;99.90
51733;DHT22;39139;53.144;6.244;2022-12-07T16:44:10;3.70;99.90
51733;DHT22;39139;53.144;6.244;2022-12-07T16:46:36;3.70;99.90
51733;DHT22;39139;53.144;6.244;2022-12-07T16:49:02;3.70;99.90
51733;DHT22;39139;53.144;6.244;2022-12-07T16:51:28;3.70;99.90
51733;DHT22;39139;53.144;6.244;2022-12-07T16:53:54;3.70;99.90
51733;DHT22;39139;53.144;6.244;2022-12-07T16:56:20;3.60;99.90
51733;DHT22;39139;53.144;6.244;2022-12-07T16:58:46;3.70;99.90
51733;DHT22;39139;53.144;6.244;2022-12-07T17:01:17;3.60;99.90
51733;DHT22;39139;53.144;6.244;2022-12-07T17:03:44;3.60;99.90
51733;DHT22;39139;53.144;6.244;2022-12-07T17:06:17;3.50;99.90
51733;DHT22;39139;53.144;6.244;2022-12-07T17:08:44;3.50;99.90
51733;DHT22;39139;53.144;6.244;2022-12-07T17:11:11;3.50;99.90
51733;DHT22;39139;53.144;6.244;2022-12-07T17:13:37;3.50;99.90
51733;DHT22;39139;53.144;6.244;2022-12-07T17:16:21;3.70;99.90
51733;DHT22;39139;53.144;6.244;2022-12-07T17:18:46;3.40;99.90
51733;DHT22;39139;53.144;6.244;2022-12-07T17:21:12;3.40;99.90
51733;DHT22;39139;53.144;6.244;2022-12-07T17:23:38;3.40;99.90
51733;DHT22;39139;53.144;6.244;2022-12-07T17:26:08;3.50;99.90
51733;DHT22;39139;53.144;6.244;2022-12-07T17:28:34;3.50;99.90
51733;DHT22;39139;53.144;6.244;2022-12-07T17:31:01;3.50;99.90
51733;DHT22;39139;53.144;6.244;2022-12-07T17:33:29;3.40;99.90
51733;DHT22;39139;53.144;6.244;2022-12-07T17:35:56;3.60;99.90
51733;DHT22;39139;53.144;6.244;2022-12-07T17:38:21;3.40;99.90
51733;DHT22;39139;53.144;6.244;2022-12-07T17:40:47;3.50;99.90
51733;DHT22;39139;53.144;6.244;2022-12-07T17:43:12;3.40;99.90
51733;DHT22;39139;53.144;6.244;2022-12-07T17:45:38;3.70;99.90
51733;DHT22;39139;53.144;6.244;2022-12-07T17:48:04;3.40;99.90
51733;DHT22;39139;53.144;6.244;2022-12-07T17:50:30;3.30;99.90
51733;DHT22;39139;53.144;6.244;2022-12-07T17:53:14;3.30;99.90
51733;DHT22;39139;53.144;6.244;2022-12-07T17:55:40;3.20;99.90
51733;DHT22;39139;53.144;6.244;2022-12-07T17:58:06;3.20;99.90
51733;DHT22;39139;53.144;6.244;2022-12-07T18:00:32;3.10;99.90
51733;DHT22;39139;53.144;6.244;2022-12-07T18:03:04;3.10;99.90
51733;DHT22;39139;53.144;6.244;2022-12-07T18:05:31;3.10;99.90